sensor_id;sensor_type;location;lat;lon;timestamp;pressure;altitude;pressure_sealevel;temperature;humidity
26697;BME280;14312;52.614;13.496;2023-02-18T00:02:18;100776.31;;;10.32;62.09
26697;BME280;14312;52.614;13.496;2023-02-18T00:05:05;100780.84;;;10.31;61.89
26697;BME280;14312;52.614;13.496;2023-02-18T00:07:51;100781.88;;;10.30;62.25
26697;BME280;14312;52.614;13.496;2023-02-18T00:10:40;100783.75;;;10.30;61.81
26697;BME280;14312;52.614;13.496;2023-02-18T00:13:25;100768.00;;;10.28;62.06
26697;BME280;14312;52.614;13.496;2023-02-18T00:16:11;100767.44;;;10.26;62.48
26697;BME280;14312;52.614;13.496;2023-02-18T00:19:00;100769.50;;;10.24;62.17
26697;BME280;14312;52.614;13.496;2023-02-18T00:21:47;100785.97;;;10.21;62.27
26697;BME280;14312;52.614;13.496;2023-02-18T00:24:33;100782.94;;;10.17;62.43
26697;BME280;14312;52.614;13.496;2023-02-18T00:27:19;100776.22;;;10.15;62.48
26697;BME280;14312;52.614;13.496;2023-02-18T00:30:05;100773.78;;;10.13;62.66
26697;BME280;14312;52.614;13.496;2023-02-18T00:32:51;100777.13;;;10.09;62.68
26697;BME280;14312;52.614;13.496;2023-02-18T00:35:37;100791.16;;;10.04;62.54
26697;BME280;14312;52.614;13.496;2023-02-18T00:38:23;100794.53;;;10.00;62.85
26697;BME280;14312;52.614;13.496;2023-02-18T00:41:09;100790.47;;;9.97;62.86
26697;BME280;14312;52.614;13.496;2023-02-18T00:43:55;100807.69;;;9.95;62.94
26697;BME280;14312;52.614;13.496;2023-02-18T00:46:41;100794.28;;;9.90;63.18
26697;BME280;14312;52.614;13.496;2023-02-18T00:49:27;100808.63;;;9.89;63.05
26697;BME280;14312;52.614;13.496;2023-02-18T00:52:13;100806.44;;;9.86;63.46
26697;BME280;14312;52.614;13.496;2023-02-18T00:54:59;100806.66;;;9.84;63.28
26697;BME280;14312;52.614;13.496;2023-02-18T00:57:45;100816.94;;;9.80;63.34
26697;BME280;14312;52.614;13.496;2023-02-18T01:00:31;100819.03;;;9.78;63.34
26697;BME280;14312;52.614;13.496;2023-02-18T01:03:17;100810.47;;;9.76;63.35
26697;BME280;14312;52.614;13.496;2023-02-18T01:06:04;100810.47;;;9.76;63.46
26697;BME280;14312;52.614;13.496;2023-02-18T01:08:51;100814.66;;;9.72;63.49
26697;BME280;14312;52.614;13.496;2023-02-18T01:11:37;100800.75;;;9.70;63.40
26697;BME280;14312;52.614;13.496;2023-02-18T01:14:23;100798.09;;;9.70;63.63
26697;BME280;14312;52.614;13.496;2023-02-18T01:17:09;100805.69;;;9.67;63.57
26697;BME280;14312;52.614;13.496;2023-02-18T01:19:56;100798.41;;;9.62;63.72
26697;BME280;14312;52.614;13.496;2023-02-18T01:22:42;100834.63;;;9.63;63.57
26697;BME280;14312;52.614;13.496;2023-02-18T01:25:28;100816.00;;;9.63;63.63
26697;BME280;14312;52.614;13.496;2023-02-18T01:28:14;100829.75;;;9.60;63.78
26697;BME280;14312;52.614;13.496;2023-02-18T01:31:09;100804.19;;;9.59;63.65
26697;BME280;14312;52.614;13.496;2023-02-18T01:33:55;100816.34;;;9.55;63.71
26697;BME280;14312;52.614;13.496;2023-02-18T01:36:41;100816.13;;;9.57;63.84
26697;BME280;14312;52.614;13.496;2023-02-18T01:39:27;100797.72;;;9.55;63.87
26697;BME280;14312;52.614;13.496;2023-02-18T01:42:22;100817.38;;;9.54;63.81
26697;BME280;14312;52.614;13.496;2023-02-18T01:45:41;100792.84;;;9.52;63.89
26697;BME280;14312;52.614;13.496;2023-02-18T01:48:37;100807.44;;;9.50;63.89
26697;BME280;14312;52.614;13.496;2023-02-18T01:51:40;100818.28;;;9.48;63.85
26697;BME280;14312;52.614;13.496;2023-02-18T01:54:38;100815.03;;;9.46;63.86
26697;BME280;14312;52.614;13.496;2023-02-18T01:57:30;100797.44;;;9.45;64.38
26697;BME280;14312;52.614;13.496;2023-02-18T02:00:17;100791.56;;;9.43;64.20
26697;BME280;14312;52.614;13.496;2023-02-18T02:03:06;100804.88;;;9.43;64.29
26697;BME280;14312;52.614;13.496;2023-02-18T02:05:52;100800.00;;;9.40;64.39
26697;BME280;14312;52.614;13.496;2023-02-18T02:08:38;100793.88;;;9.39;64.38
26697;BME280;14312;52.614;13.496;2023-02-18T02:18:20;100805.31;;;9.40;64.30
26697;BME280;14312;52.614;13.496;2023-02-18T02:21:30;100804.72;;;9.38;64.47
26697;BME280;14312;52.614;13.496;2023-02-18T02:24:54;100811.09;;;9.37;64.31
26697;BME280;14312;52.614;13.496;2023-02-18T02:34:27;100809.91;;;9.33;64.09
26697;BME280;14312;52.614;13.496;2023-02-18T02:40:37;100807.47;;;9.31;64.60
26697;BME280;14312;52.614;13.496;2023-02-18T02:47:04;100811.44;;;9.29;64.49
26697;BME280;14312;52.614;13.496;2023-02-18T02:52:31;100822.28;;;9.27;64.26
26697;BME280;14312;52.614;13.496;2023-02-18T02:55:18;100817.78;;;9.28;64.67
26697;BME280;14312;52.614;13.496;2023-02-18T02:58:04;100819.63;;;9.27;64.48
26697;BME280;14312;52.614;13.496;2023-02-18T03:10:19;100819.03;;;9.25;64.54
26697;BME280;14312;52.614;13.496;2023-02-18T03:16:44;100825.84;;;9.21;64.75
26697;BME280;14312;52.614;13.496;2023-02-18T03:19:34;100838.31;;;9.21;64.70
26697;BME280;14312;52.614;13.496;2023-02-18T03:22:29;100831.38;;;9.20;64.42
26697;BME280;14312;52.614;13.496;2023-02-18T03:25:17;100836.69;;;9.20;64.97
26697;BME280;14312;52.614;13.496;2023-02-18T03:28:11;100829.75;;;9.19;64.79
26697;BME280;14312;52.614;13.496;2023-02-18T03:31:03;100817.50;;;9.18;64.92
26697;BME280;14312;52.614;13.496;2023-02-18T03:33:56;100810.34;;;9.18;64.89
26697;BME280;14312;52.614;13.496;2023-02-18T03:36:44;100817.16;;;9.14;64.90
26697;BME280;14312;52.614;13.496;2023-02-18T03:39:32;100819.59;;;9.16;64.93
26697;BME280;14312;52.614;13.496;2023-02-18T03:42:24;100819.00;;;9.14;64.82
26697;BME280;14312;52.614;13.496;2023-02-18T03:45:11;100821.19;;;9.17;64.90
26697;BME280;14312;52.614;13.496;2023-02-18T03:47:57;100823.84;;;9.17;64.81
26697;BME280;14312;52.614;13.496;2023-02-18T03:50:43;100830.78;;;9.18;65.01
26697;BME280;14312;52.614;13.496;2023-02-18T03:53:29;100835.06;;;9.19;64.69
26697;BME280;14312;52.614;13.496;2023-02-18T03:56:16;100817.06;;;9.21;64.69
26697;BME280;14312;52.614;13.496;2023-02-18T03:59:02;100824.44;;;9.19;64.79
26697;BME280;14312;52.614;13.496;2023-02-18T04:01:48;100839.38;;;9.20;64.72
26697;BME280;14312;52.614;13.496;2023-02-18T04:04:34;100835.06;;;9.19;64.91
26697;BME280;14312;52.614;13.496;2023-02-18T04:07:20;100839.56;;;9.18;64.71
26697;BME280;14312;52.614;13.496;2023-02-18T04:10:07;100835.06;;;9.19;64.48
26697;BME280;14312;52.614;13.496;2023-02-18T04:12:53;100838.53;;;9.19;64.57
26697;BME280;14312;52.614;13.496;2023-02-18T04:15:39;100838.75;;;9.18;64.45
26697;BME280;14312;52.614;13.496;2023-02-18T04:18:25;100843.28;;;9.17;64.48
26697;BME280;14312;52.614;13.496;2023-02-18T04:21:11;100852.06;;;9.18;64.68
26697;BME280;14312;52.614;13.496;2023-02-18T04:23:57;100839.56;;;9.18;64.69
26697;BME280;14312;52.614;13.496;2023-02-18T04:26:43;100862.69;;;9.18;64.36
26697;BME280;14312;52.614;13.496;2023-02-18T04:29:29;100848.25;;;9.14;64.52
26697;BME280;14312;52.614;13.496;2023-02-18T04:32:15;100851.50;;;9.16;64.69
26697;BME280;14312;52.614;13.496;2023-02-18T04:35:01;100856.00;;;9.15;64.75
26697;BME280;14312;52.614;13.496;2023-02-18T04:37:47;100846.63;;;9.13;64.63
26697;BME280;14312;52.614;13.496;2023-02-18T04:40:33;100873.78;;;9.15;64.63
26697;BME280;14312;52.614;13.496;2023-02-18T04:43:19;100874.00;;;9.13;64.82
26697;BME280;14312;52.614;13.496;2023-02-18T04:46:05;100852.75;;;9.13;64.75
26697;BME280;14312;52.614;13.496;2023-02-18T04:48:51;100851.13;;;9.12;64.36
26697;BME280;14312;52.614;13.496;2023-02-18T04:51:37;100854.00;;;9.11;64.79
26697;BME280;14312;52.614;13.496;2023-02-18T04:54:23;100856.09;;;9.09;64.54
26697;BME280;14312;52.614;13.496;2023-02-18T04:57:09;100861.41;;;9.09;64.47
26697;BME280;14312;52.614;13.496;2023-02-18T04:59:55;100841.72;;;9.10;64.40
26697;BME280;14312;52.614;13.496;2023-02-18T05:02:42;100866.72;;;9.09;64.63
26697;BME280;14312;52.614;13.496;2023-02-18T05:05:28;100875.72;;;9.08;64.62
26697;BME280;14312;52.614;13.496;2023-02-18T05:08:14;100866.13;;;9.07;64.65
26697;BME280;14312;52.614;13.496;2023-02-18T05:11:04;100858.16;;;9.07;64.38
26697;BME280;14312;52.614;13.496;2023-02-18T05:13:50;100865.09;;;9.08;64.55
26697;BME280;14312;52.614;13.496;2023-02-18T05:16:36;100860.59;;;9.08;64.55
26697;BME280;14312;52.614;13.496;2023-02-18T05:19:22;100862.44;;;9.08;64.49
26697;BME280;14312;52.614;13.496;2023-02-18T05:22:08;100866.72;;;9.09;64.58
26697;BME280;14312;52.614;13.496;2023-02-18T05:24:54;100862.22;;;9.09;64.70
26697;BME280;14312;52.614;13.496;2023-02-18T05:27:40;100853.78;;;9.12;64.45
26697;BME280;14312;52.614;13.496;2023-02-18T05:30:26;100857.25;;;9.13;64.37
26697;BME280;14312;52.614;13.496;2023-02-18T05:33:12;100842.94;;;9.14;64.45
26697;BME280;14312;52.614;13.496;2023-02-18T05:35:58;100838.19;;;9.16;64.65
26697;BME280;14312;52.614;13.496;2023-02-18T05:38:44;100842.47;;;9.17;64.42
26697;BME280;14312;52.614;13.496;2023-02-18T05:41:30;100837.50;;;9.20;64.44
26697;BME280;14312;52.614;13.496;2023-02-18T05:44:16;100845.28;;;9.22;64.13
26697;BME280;14312;52.614;13.496;2023-02-18T05:47:14;100848.28;;;9.25;63.87
26697;BME280;14312;52.614;13.496;2023-02-18T05:50:01;100846.00;;;9.29;64.08
26697;BME280;14312;52.614;13.496;2023-02-18T05:52:47;100850.84;;;9.32;64.16
26697;BME280;14312;52.614;13.496;2023-02-18T05:55:33;100848.34;;;9.37;64.30
26697;BME280;14312;52.614;13.496;2023-02-18T05:58:23;100855.25;;;9.38;63.78
26697;BME280;14312;52.614;13.496;2023-02-18T06:01:09;100844.97;;;9.41;63.79
26697;BME280;14312;52.614;13.496;2023-02-18T06:03:55;100846.94;;;9.46;63.92
26697;BME280;14312;52.614;13.496;2023-02-18T06:06:41;100841.19;;;9.49;63.63
26697;BME280;14312;52.614;13.496;2023-02-18T06:09:27;100843.16;;;9.54;63.92
26697;BME280;14312;52.614;13.496;2023-02-18T06:12:13;100850.69;;;9.57;63.40
26697;BME280;14312;52.614;13.496;2023-02-18T06:14:59;100848.97;;;9.62;62.86
26697;BME280;14312;52.614;13.496;2023-02-18T06:17:45;100844.25;;;9.64;62.94
26697;BME280;14312;52.614;13.496;2023-02-18T06:20:31;100842.94;;;9.67;63.01
26697;BME280;14312;52.614;13.496;2023-02-18T06:23:17;100843.53;;;9.69;62.65
26697;BME280;14312;52.614;13.496;2023-02-18T06:26:03;100838.00;;;9.70;62.60
26697;BME280;14312;52.614;13.496;2023-02-18T06:28:49;100840.19;;;9.73;62.91
26697;BME280;14312;52.614;13.496;2023-02-18T06:31:35;100845.28;;;9.75;63.05
26697;BME280;14312;52.614;13.496;2023-02-18T06:34:21;100840.78;;;9.75;62.78
26697;BME280;14312;52.614;13.496;2023-02-18T06:37:07;100839.53;;;9.78;62.78
26697;BME280;14312;52.614;13.496;2023-02-18T06:39:53;100832.13;;;9.80;62.93
26697;BME280;14312;52.614;13.496;2023-02-18T06:42:39;100835.13;;;9.83;62.99
26697;BME280;14312;52.614;13.496;2023-02-18T06:45:25;100833.06;;;9.86;62.54
26697;BME280;14312;52.614;13.496;2023-02-18T06:48:11;100839.75;;;9.88;62.33
26697;BME280;14312;52.614;13.496;2023-02-18T06:50:58;100835.22;;;9.89;62.26
26697;BME280;14312;52.614;13.496;2023-02-18T06:53:45;100836.84;;;9.90;62.55
26697;BME280;14312;52.614;13.496;2023-02-18T06:56:31;100837.22;;;9.93;62.46
26697;BME280;14312;52.614;13.496;2023-02-18T06:59:17;100830.59;;;9.96;62.48
26697;BME280;14312;52.614;13.496;2023-02-18T07:02:03;100832.22;;;9.97;62.30
26697;BME280;14312;52.614;13.496;2023-02-18T07:04:49;100840.81;;;9.99;62.45
26697;BME280;14312;52.614;13.496;2023-02-18T07:07:35;100837.13;;;10.00;62.16
26697;BME280;14312;52.614;13.496;2023-02-18T07:10:21;100832.34;;;10.02;62.27
26697;BME280;14312;52.614;13.496;2023-02-18T07:13:07;100823.91;;;10.05;62.00
26697;BME280;14312;52.614;13.496;2023-02-18T07:15:52;100807.94;;;10.05;62.19
26697;BME280;14312;52.614;13.496;2023-02-18T07:18:38;100820.22;;;10.06;61.97
26697;BME280;14312;52.614;13.496;2023-02-18T07:21:24;100822.66;;;10.07;61.89
26697;BME280;14312;52.614;13.496;2023-02-18T07:24:10;100804.22;;;10.06;61.89
26697;BME280;14312;52.614;13.496;2023-02-18T07:26:56;100800.31;;;10.08;61.68
26697;BME280;14312;52.614;13.496;2023-02-18T07:29:42;100813.38;;;10.10;61.89
26697;BME280;14312;52.614;13.496;2023-02-18T07:32:28;100803.75;;;10.09;61.90
26697;BME280;14312;52.614;13.496;2023-02-18T07:35:15;100807.00;;;10.11;61.84
26697;BME280;14312;52.614;13.496;2023-02-18T07:38:02;100803.31;;;10.12;62.01
26697;BME280;14312;52.614;13.496;2023-02-18T07:40:48;100811.88;;;10.14;62.06
26697;BME280;14312;52.614;13.496;2023-02-18T07:43:34;100801.59;;;10.17;61.68
26697;BME280;14312;52.614;13.496;2023-02-18T07:46:20;100783.94;;;10.16;61.89
26697;BME280;14312;52.614;13.496;2023-02-18T07:49:06;100785.97;;;10.21;61.74
26697;BME280;14312;52.614;13.496;2023-02-18T07:51:52;100776.69;;;10.24;61.80
26697;BME280;14312;52.614;13.496;2023-02-18T07:54:38;100788.28;;;10.29;61.81
26697;BME280;14312;52.614;13.496;2023-02-18T07:57:24;100790.94;;;10.29;61.83
26697;BME280;14312;52.614;13.496;2023-02-18T08:00:11;100798.44;;;10.32;61.71
26697;BME280;14312;52.614;13.496;2023-02-18T08:02:57;100780.38;;;10.34;61.53
26697;BME280;14312;52.614;13.496;2023-02-18T08:05:43;100787.34;;;10.35;61.77
26697;BME280;14312;52.614;13.496;2023-02-18T08:08:30;100782.34;;;10.39;62.04
26697;BME280;14312;52.614;13.496;2023-02-18T08:11:16;100771.44;;;10.40;62.40
26697;BME280;14312;52.614;13.496;2023-02-18T08:14:03;100751.31;;;10.44;62.36
26697;BME280;14312;52.614;13.496;2023-02-18T08:16:48;100750.81;;;10.47;62.54
26697;BME280;14312;52.614;13.496;2023-02-18T08:19:34;100745.03;;;10.50;62.27
26697;BME280;14312;52.614;13.496;2023-02-18T08:22:20;100740.50;;;10.51;62.22
26697;BME280;14312;52.614;13.496;2023-02-18T08:25:06;100739.22;;;10.53;62.41
26697;BME280;14312;52.614;13.496;2023-02-18T08:27:52;100729.13;;;10.55;62.39
26697;BME280;14312;52.614;13.496;2023-02-18T08:30:43;100739.34;;;10.58;62.35
26697;BME280;14312;52.614;13.496;2023-02-18T08:33:29;100727.06;;;10.57;62.32
26697;BME280;14312;52.614;13.496;2023-02-18T08:36:16;100730.75;;;10.56;62.44
26697;BME280;14312;52.614;13.496;2023-02-18T08:39:02;100726.47;;;10.55;62.36
26697;BME280;14312;52.614;13.496;2023-02-18T08:41:48;100725.88;;;10.53;62.74
26697;BME280;14312;52.614;13.496;2023-02-18T08:44:34;100728.00;;;10.51;62.27
26697;BME280;14312;52.614;13.496;2023-02-18T08:47:20;100730.91;;;10.50;62.75
26697;BME280;14312;52.614;13.496;2023-02-18T08:50:07;100720.69;;;10.47;62.92
26697;BME280;14312;52.614;13.496;2023-02-18T08:52:53;100717.47;;;10.45;63.04
26697;BME280;14312;52.614;13.496;2023-02-18T08:55:39;100721.19;;;10.44;63.43
26697;BME280;14312;52.614;13.496;2023-02-18T08:58:25;100717.94;;;10.42;63.03
26697;BME280;14312;52.614;13.496;2023-02-18T09:01:12;100707.44;;;10.35;63.58
26697;BME280;14312;52.614;13.496;2023-02-18T09:03:58;100708.94;;;10.31;63.56
26697;BME280;14312;52.614;13.496;2023-02-18T09:06:44;100710.47;;;10.27;63.81
26697;BME280;14312;52.614;13.496;2023-02-18T09:09:31;100711.97;;;10.23;63.99
26697;BME280;14312;52.614;13.496;2023-02-18T09:12:17;100714.31;;;10.19;64.01
26697;BME280;14312;52.614;13.496;2023-02-18T09:15:03;100711.25;;;10.16;64.29
26697;BME280;14312;52.614;13.496;2023-02-18T09:17:49;100704.78;;;10.12;64.44
26697;BME280;14312;52.614;13.496;2023-02-18T09:20:38;100698.56;;;10.06;64.91
26697;BME280;14312;52.614;13.496;2023-02-18T09:23:26;100689.19;;;10.04;64.65
26697;BME280;14312;52.614;13.496;2023-02-18T09:26:14;100683.25;;;10.02;65.30
26697;BME280;14312;52.614;13.496;2023-02-18T09:29:00;100684.78;;;9.98;65.22
26697;BME280;14312;52.614;13.496;2023-02-18T09:31:47;100683.97;;;9.97;65.30
26697;BME280;14312;52.614;13.496;2023-02-18T09:34:33;100694.31;;;9.94;65.44
26697;BME280;14312;52.614;13.496;2023-02-18T09:37:19;100687.34;;;9.93;65.79
26697;BME280;14312;52.614;13.496;2023-02-18T09:40:06;100683.88;;;9.92;65.83
26697;BME280;14312;52.614;13.496;2023-02-18T09:42:54;100677.53;;;9.93;65.75
26697;BME280;14312;52.614;13.496;2023-02-18T09:45:41;100675.09;;;9.92;66.29
26697;BME280;14312;52.614;13.496;2023-02-18T09:48:32;100668.72;;;9.93;66.52
26697;BME280;14312;52.614;13.496;2023-02-18T09:51:19;100642.09;;;9.93;66.40
26697;BME280;14312;52.614;13.496;2023-02-18T09:54:09;100629.84;;;9.92;66.39
26697;BME280;14312;52.614;13.496;2023-02-18T09:56:57;100623.47;;;9.93;66.58
26697;BME280;14312;52.614;13.496;2023-02-18T09:59:45;100620.22;;;9.91;66.59
26697;BME280;14312;52.614;13.496;2023-02-18T10:02:33;100607.97;;;9.90;67.17
26697;BME280;14312;52.614;13.496;2023-02-18T10:05:21;100605.31;;;9.90;67.33
26697;BME280;14312;52.614;13.496;2023-02-18T10:08:20;100603.13;;;9.87;67.57
26697;BME280;14312;52.614;13.496;2023-02-18T10:11:16;100587.16;;;9.87;67.89
26697;BME280;14312;52.614;13.496;2023-02-18T10:14:05;100601.75;;;9.84;68.12
26697;BME280;14312;52.614;13.496;2023-02-18T10:16:54;100600.34;;;9.81;68.68
26697;BME280;14312;52.614;13.496;2023-02-18T10:19:42;100582.44;;;9.77;68.88
26697;BME280;14312;52.614;13.496;2023-02-18T10:22:28;100577.84;;;9.72;69.41
26697;BME280;14312;52.614;13.496;2023-02-18T10:25:18;100575.63;;;9.69;69.30
26697;BME280;14312;52.614;13.496;2023-02-18T10:28:05;100552.72;;;9.68;70.19
26697;BME280;14312;52.614;13.496;2023-02-18T10:30:59;100534.31;;;9.67;70.66
26697;BME280;14312;52.614;13.496;2023-02-18T10:34:14;100515.97;;;9.65;70.56
26697;BME280;14312;52.614;13.496;2023-02-18T10:40:21;100499.34;;;9.58;71.69
26697;BME280;14312;52.614;13.496;2023-02-18T10:43:37;100482.78;;;9.56;71.98
26697;BME280;14312;52.614;13.496;2023-02-18T10:46:55;100478.50;;;9.55;72.01
26697;BME280;14312;52.614;13.496;2023-02-18T10:53:28;100451.91;;;9.55;73.35
26697;BME280;14312;52.614;13.496;2023-02-18T10:56:38;100457.16;;;9.50;72.81
26697;BME280;14312;52.614;13.496;2023-02-18T10:59:30;100451.25;;;9.48;73.61
26697;BME280;14312;52.614;13.496;2023-02-18T11:02:17;100448.00;;;9.46;74.22
26697;BME280;14312;52.614;13.496;2023-02-18T11:05:25;100439.00;;;9.47;73.96
26697;BME280;14312;52.614;13.496;2023-02-18T11:08:22;100424.06;;;9.46;74.45
26697;BME280;14312;52.614;13.496;2023-02-18T11:11:15;100402.25;;;9.44;74.76
26697;BME280;14312;52.614;13.496;2023-02-18T11:14:04;100400.13;;;9.46;75.02
26697;BME280;14312;52.614;13.496;2023-02-18T11:16:50;100389.50;;;9.46;75.43
26697;BME280;14312;52.614;13.496;2023-02-18T11:19:40;100376.78;;;9.48;75.77
26697;BME280;14312;52.614;13.496;2023-02-18T11:22:33;100369.94;;;9.52;75.84
26697;BME280;14312;52.614;13.496;2023-02-18T11:25:24;100371.06;;;9.56;76.05
26697;BME280;14312;52.614;13.496;2023-02-18T11:31:03;100347.59;;;9.53;76.24
26697;BME280;14312;52.614;13.496;2023-02-18T11:33:56;100352.47;;;9.56;76.27
26697;BME280;14312;52.614;13.496;2023-02-18T11:36:44;100339.16;;;9.56;76.47
26697;BME280;14312;52.614;13.496;2023-02-18T11:39:31;100332.31;;;9.60;76.77
26697;BME280;14312;52.614;13.496;2023-02-18T11:42:20;100325.22;;;9.66;76.80
26697;BME280;14312;52.614;13.496;2023-02-18T11:45:25;100313.28;;;9.68;76.43
26697;BME280;14312;52.614;13.496;2023-02-18T11:48:22;100308.19;;;9.67;76.61
26697;BME280;14312;52.614;13.496;2023-02-18T11:51:25;100289.56;;;9.67;76.57
26697;BME280;14312;52.614;13.496;2023-02-18T11:54:26;100310.06;;;9.66;76.28
26697;BME280;14312;52.614;13.496;2023-02-18T11:57:15;100282.66;;;9.66;76.55
26697;BME280;14312;52.614;13.496;2023-02-18T12:00:18;100282.97;;;9.69;76.94
26697;BME280;14312;52.614;13.496;2023-02-18T12:06:34;100246.38;;;9.76;77.44
26697;BME280;14312;52.614;13.496;2023-02-18T12:12:19;100238.16;;;9.78;77.72
26697;BME280;14312;52.614;13.496;2023-02-18T12:15:16;100251.75;;;9.81;77.71
26697;BME280;14312;52.614;13.496;2023-02-18T12:21:38;100235.94;;;9.92;78.52
26697;BME280;14312;52.614;13.496;2023-02-18T12:37:30;100198.53;;;10.20;78.85
26697;BME280;14312;52.614;13.496;2023-02-18T12:40:50;100191.75;;;10.29;78.98
26697;BME280;14312;52.614;13.496;2023-02-18T12:56:34;100147.47;;;10.77;80.30
26697;BME280;14312;52.614;13.496;2023-02-18T13:08:50;100124.72;;;11.33;81.54
26697;BME280;14312;52.614;13.496;2023-02-18T13:12:09;100121.88;;;11.50;81.67
26697;BME280;14312;52.614;13.496;2023-02-18T13:15:24;100108.63;;;11.65;81.63
26697;BME280;14312;52.614;13.496;2023-02-18T13:18:47;100125.81;;;11.79;81.66
26697;BME280;14312;52.614;13.496;2023-02-18T13:21:36;100109.31;;;11.92;82.36
26697;BME280;14312;52.614;13.496;2023-02-18T13:24:32;100107.22;;;12.04;82.42
26697;BME280;14312;52.614;13.496;2023-02-18T13:27:37;100098.94;;;12.16;82.24
26697;BME280;14312;52.614;13.496;2023-02-18T13:33:49;100084.56;;;12.37;82.16
26697;BME280;14312;52.614;13.496;2023-02-18T13:37:25;100090.47;;;12.49;81.93
26697;BME280;14312;52.614;13.496;2023-02-18T13:40:21;100080.59;;;12.55;81.91
26697;BME280;14312;52.614;13.496;2023-02-18T13:43:27;100073.66;;;12.64;81.82
26697;BME280;14312;52.614;13.496;2023-02-18T13:46:16;100067.25;;;12.70;81.99
26697;BME280;14312;52.614;13.496;2023-02-18T13:49:06;100071.50;;;12.76;81.92
26697;BME280;14312;52.614;13.496;2023-02-18T13:51:57;100058.13;;;12.81;81.95
26697;BME280;14312;52.614;13.496;2023-02-18T13:54:45;100078.44;;;12.87;81.85
26697;BME280;14312;52.614;13.496;2023-02-18T13:57:35;100099.84;;;12.92;81.81
26697;BME280;14312;52.614;13.496;2023-02-18T14:00:35;100074.16;;;12.97;81.50
26697;BME280;14312;52.614;13.496;2023-02-18T14:06:22;100081.91;;;13.03;81.75
26697;BME280;14312;52.614;13.496;2023-02-18T14:09:35;100067.72;;;13.08;81.43
26697;BME280;14312;52.614;13.496;2023-02-18T14:21:37;100091.84;;;13.13;81.53
26697;BME280;14312;52.614;13.496;2023-02-18T14:24:43;100089.97;;;13.13;81.52
26697;BME280;14312;52.614;13.496;2023-02-18T14:27:31;100102.53;;;13.13;81.65
26697;BME280;14312;52.614;13.496;2023-02-18T14:30:24;100091.59;;;13.14;81.57
26697;BME280;14312;52.614;13.496;2023-02-18T14:33:14;100067.50;;;13.14;81.55
26697;BME280;14312;52.614;13.496;2023-02-18T14:45:53;100083.81;;;13.18;81.58
26697;BME280;14312;52.614;13.496;2023-02-18T14:51:57;100102.25;;;13.19;81.90
26697;BME280;14312;52.614;13.496;2023-02-18T14:54:44;100102.00;;;13.21;82.00
26697;BME280;14312;52.614;13.496;2023-02-18T14:57:50;100093.41;;;13.24;81.46
26697;BME280;14312;52.614;13.496;2023-02-18T15:00:41;100113.22;;;13.23;81.37
26697;BME280;14312;52.614;13.496;2023-02-18T15:03:28;100100.13;;;13.21;81.34
26697;BME280;14312;52.614;13.496;2023-02-18T15:06:40;100092.63;;;13.23;80.91
26697;BME280;14312;52.614;13.496;2023-02-18T15:09:26;100110.03;;;13.21;81.20
26697;BME280;14312;52.614;13.496;2023-02-18T15:12:16;100137.31;;;13.18;81.09
26697;BME280;14312;52.614;13.496;2023-02-18T15:15:04;100134.09;;;13.16;81.28
26697;BME280;14312;52.614;13.496;2023-02-18T15:17:51;100133.81;;;13.12;81.13
26697;BME280;14312;52.614;13.496;2023-02-18T15:20:37;100144.22;;;13.09;81.18
26697;BME280;14312;52.614;13.496;2023-02-18T15:23:23;100154.69;;;13.05;81.24
26697;BME280;14312;52.614;13.496;2023-02-18T15:26:14;100149.59;;;13.04;81.01
26697;BME280;14312;52.614;13.496;2023-02-18T15:29:04;100154.94;;;12.99;80.53
26697;BME280;14312;52.614;13.496;2023-02-18T15:31:50;100159.75;;;12.91;80.24
26697;BME280;14312;52.614;13.496;2023-02-18T15:34:38;100161.59;;;12.86;80.11
26697;BME280;14312;52.614;13.496;2023-02-18T15:37:24;100171.50;;;12.80;80.26
26697;BME280;14312;52.614;13.496;2023-02-18T15:40:14;100187.00;;;12.73;80.42
26697;BME280;14312;52.614;13.496;2023-02-18T15:43:03;100200.63;;;12.67;80.31
26697;BME280;14312;52.614;13.496;2023-02-18T15:45:53;100204.09;;;12.62;80.42
26697;BME280;14312;52.614;13.496;2023-02-18T15:48:44;100212.88;;;12.57;80.11
26697;BME280;14312;52.614;13.496;2023-02-18T15:51:31;100213.94;;;12.51;80.06
26697;BME280;14312;52.614;13.496;2023-02-18T15:54:19;100208.84;;;12.45;80.08
26697;BME280;14312;52.614;13.496;2023-02-18T15:57:12;100231.25;;;12.39;80.02
26697;BME280;14312;52.614;13.496;2023-02-18T16:00:05;100225.34;;;12.32;80.01
26697;BME280;14312;52.614;13.496;2023-02-18T16:06:15;100248.00;;;12.19;79.33
26697;BME280;14312;52.614;13.496;2023-02-18T16:09:17;100246.63;;;12.11;79.57
26697;BME280;14312;52.614;13.496;2023-02-18T16:12:45;100263.16;;;12.03;79.70
26697;BME280;14312;52.614;13.496;2023-02-18T16:15:36;100272.44;;;11.96;79.71
26697;BME280;14312;52.614;13.496;2023-02-18T16:18:30;100279.06;;;11.88;79.81
26697;BME280;14312;52.614;13.496;2023-02-18T16:27:14;100309.31;;;11.67;79.59
26697;BME280;14312;52.614;13.496;2023-02-18T16:30:19;100307.91;;;11.59;79.26
26697;BME280;14312;52.614;13.496;2023-02-18T16:33:06;100318.81;;;11.53;79.77
26697;BME280;14312;52.614;13.496;2023-02-18T16:35:52;100332.34;;;11.46;79.82
26697;BME280;14312;52.614;13.496;2023-02-18T16:38:42;100340.56;;;11.39;79.78
26697;BME280;14312;52.614;13.496;2023-02-18T16:41:28;100348.78;;;11.33;79.98
26697;BME280;14312;52.614;13.496;2023-02-18T16:44:14;100355.94;;;11.27;79.92
26697;BME280;14312;52.614;13.496;2023-02-18T16:47:00;100354.25;;;11.21;79.92
26697;BME280;14312;52.614;13.496;2023-02-18T16:49:48;100361.13;;;11.17;80.14
26697;BME280;14312;52.614;13.496;2023-02-18T16:52:34;100370.13;;;11.11;79.88